Abdon Castro Tolay, Argentina
Current Conditions -  °F | °C
As of 11:00 PM on Saturday 22 Nov 2014 (Local Time) from SASJ Reporting Station
Overcast Overcast  
Wind Chill: 64°   Ceiling: 10000
Heat Index: 64°   Visibility: 6mi
Dew Point: 61°   Wind: 3mph
Humidity: 88%   Direction: 290°WNW
Pressure: 30.09"   Gusts: NA
Location:  23.06°S, 65.97°W
Report Text: SASJ 230200Z 29003KT 9999 SCT025 OVC10018/16 Q1019
Loading
Personal Weather Stations






























Interactive Weather Map New forecast layout! Learn more

10-Day Weather Forecast

Advertisements
Track Severe Weather on mobile